| time (UTC) | temp F | wind direction | speed knots | gust knots | rain 1hr in | rain 24hr in | rain mn in | humidity % | barometer mb |
| 20260905224524 | 93 | 304 | 0.0 | 0.0 | 0.00 | 0.10 | 0.10 | 58 | 1008.7 |
| 20260905223034 | 94 | 13 | 0.0 | 0.9 | 0.00 | 0.10 | 0.10 | 57 | 1008.7 |
| 20260905221537 | 95 | 315 | 0.0 | 0.0 | 0.00 | 0.10 | 0.10 | 55 | 1008.6 |
| 20260905220026 | 95 | 271 | 0.0 | 0.0 | 0.00 | 0.10 | 0.10 | 53 | 1008.6 |
| 20260905214521 | 95 | 271 | 0.0 | 0.0 | 0.00 | 0.10 | 0.10 | 53 | 1008.7 |
| 20260905213021 | 94 | 271 | 0.0 | 0.0 | 0.00 | 0.10 | 0.10 | 56 | 1008.8 |
| 20260905211536 | 93 | 271 | 0.0 | 0.0 | 0.00 | 0.10 | 0.10 | 56 | 1008.8 |
| 20260905210018 | 92 | 229 | 0.0 | 0.0 | 0.00 | 0.10 | 0.10 | 58 | 1009.0 |
| 20260905204517 | 91 | 227 | 0.0 | 0.0 | 0.00 | 0.10 | 0.10 | 59 | 1009.2 |
| 20260905203014 | 88 | 229 | 0.0 | 0.0 | 0.00 | 0.10 | 0.10 | 67 | 1009.4 |
| 20260905201512 | 86 | 221 | 0.0 | 0.0 | 0.00 | 0.10 | 0.10 | 68 | 1009.5 |
| 20260905200014 | 85 | 203 | 0.0 | 0.0 | 0.00 | 0.10 | 0.10 | 71 | 1009.8 |
| 20260905194509 | 82 | 64 | 0.0 | 0.0 | 0.10 | 0.10 | 0.10 | 75 | 1009.9 |
| 20260905193008 | 80 | 49 | 0.0 | 0.0 | 0.10 | 0.10 | 0.10 | 79 | 1010.1 |
| 20260905191508 | 79 | 118 | 0.0 | 0.0 | 0.10 | 0.10 | 0.10 | 79 | 1010.3 |
| 20260905190007 | 83 | 113 | 0.0 | 0.9 | 0.10 | 0.10 | 0.10 | 70 | 1010.8 |
| 20260905184506 | 92 | 277 | 0.0 | 4.3 | 0.00 | 0.00 | 0.00 | 56 | 1010.2 |
| 20260905183006 | 96 | 271 | 0.0 | 0.0 | 0.00 | 0.00 | 0.00 | 50 | 1010.1 |
| 20260905181504 | 97 | 227 | 0.0 | 0.0 | 0.00 | 0.00 | 0.00 | 50 | 1010.1 |
| 20260905180001 | 96 | 215 | 0.0 | 0.0 | 0.00 | 0.00 | 0.00 | 50 | 1010.2 |
| 20260905174604 | 96 | 281 | 0.0 | 0.0 | 0.00 | 0.00 | 0.00 | 51 | 1010.3 |
| 20260905173057 | 96 | 288 | 0.0 | 0.0 | 0.00 | 0.00 | 0.00 | 52 | 1010.6 |
| 20260905171605 | 95 | 220 | 0.0 | 0.0 | 0.00 | 0.00 | 0.00 | 52 | 1010.6 |
| 20260905170058 | 95 | 350 | 0.0 | 0.0 | 0.00 | 0.00 | 0.00 | 52 | 1010.7 |
| 20260905164552 | 94 | 163 | 0.0 | 0.0 | 0.00 | 0.00 | 0.00 | 52 | 1011.0 |
| 20260905163049 | 94 | 333 | 0.0 | 0.0 | 0.00 | 0.00 | 0.00 | 53 | 1011.1 |
| 20260905161548 | 94 | 269 | 0.0 | 0.0 | 0.00 | 0.00 | 0.00 | 53 | 1011.0 |
| 20260905160051 | 93 | 334 | 0.0 | 0.0 | 0.00 | 0.00 | 0.00 | 56 | 1011.0 |
| 20260905154552 | 93 | 300 | 0.0 | 0.0 | 0.00 | 0.00 | 0.00 | 58 | 1011.0 |
| 20260905153042 | 92 | 290 | 0.0 | 0.0 | 0.00 | 0.00 | 0.00 | 56 | 1011.0 |
| 20260905151541 | 92 | 260 | 0.0 | 0.0 | 0.00 | 0.00 | 0.00 | 60 | 1010.9 |
| 20260905150037 | 90 | 261 | 0.0 | 0.0 | 0.00 | 0.00 | 0.00 | 65 | 1011.1 |
| 20260905144546 | 89 | 258 | 0.0 | 0.0 | 0.00 | 0.00 | 0.00 | 67 | 1011.1 |
| 20260905143030 | 88 | 277 | 0.0 | 0.0 | 0.00 | 0.00 | 0.00 | 68 | 1011.1 |
| 20260905141526 | 87 | 277 | 0.0 | 0.0 | 0.00 | 0.00 | 0.00 | 71 | 1011.1 |
| 20260905140027 | 85 | 223 | 0.0 | 0.0 | 0.00 | 0.00 | 0.00 | 71 | 1011.1 |
| 20260905134517 | 83 | 236 | 0.0 | 0.0 | 0.00 | 0.00 | 0.00 | 77 | 1011.3 |
| 20260905133013 | 81 | 223 | 0.0 | 0.0 | 0.00 | 0.00 | 0.00 | 80 | 1011.4 |
| 20260905131510 | 79 | 223 | 0.0 | 0.0 | 0.00 | 0.00 | 0.00 | 81 | 1011.4 |
| 20260905130006 | 78 | 223 | 0.0 | 0.0 | 0.00 | 0.00 | 0.00 | 85 | 1011.6 |
| 20260905124506 | 76 | 223 | 0.0 | 0.0 | 0.00 | 0.00 | 0.00 | 87 | 1011.3 |
| 20260905123003 | 76 | 223 | 0.0 | 0.0 | 0.00 | 0.00 | 0.00 | 87 | 1011.3 |
| 20260905121504 | 75 | 223 | 0.0 | 0.0 | 0.00 | 0.00 | 0.00 | 87 | 1011.2 |
| 20260905120101 | 75 | 223 | 0.0 | 0.0 | 0.00 | 0.00 | 0.00 | 86 | 1011.1 |
| 20260905114610 | 75 | 223 | 0.0 | 0.0 | 0.00 | 0.00 | 0.00 | 85 | 1011.1 |
| 20260905113058 | 76 | 223 | 0.0 | 0.0 | 0.00 | 0.00 | 0.00 | 85 | 1011.0 |
| 20260905111607 | 76 | 223 | 0.0 | 0.0 | 0.00 | 0.00 | 0.00 | 85 | 1010.9 |
| 20260905110100 | 76 | 223 | 0.0 | 0.0 | 0.00 | 0.00 | 0.00 | 84 | 1010.8 |
| 20260905104554 | 76 | 223 | 0.0 | 0.0 | 0.00 | 0.00 | 0.00 | 85 | 1010.9 |
| 20260905103053 | 76 | 223 | 0.0 | 0.0 | 0.00 | 0.00 | 0.00 | 84 | 1010.9 |
| 20260905101552 | 76 | 223 | 0.0 | 0.0 | 0.00 | 0.00 | 0.00 | 84 | 1010.8 |
| 20260905100052 | 76 | 223 | 0.0 | 0.0 | 0.00 | 0.00 | 0.00 | 84 | 1010.8 |
| 20260905094601 | 76 | 223 | 0.0 | 0.0 | 0.00 | 0.00 | 0.00 | 85 | 1010.7 |
| 20260905093051 | 76 | 223 | 0.0 | 0.0 | 0.00 | 0.00 | 0.00 | 85 | 1010.7 |
| 20260905091557 | 76 | 223 | 0.0 | 0.0 | 0.00 | 0.00 | 0.00 | 85 | 1010.4 |
| 20260905090048 | 76 | 223 | 0.0 | 0.0 | 0.00 | 0.00 | 0.00 | 85 | 1010.4 |
| 20260905084547 | 75 | 223 | 0.0 | 0.0 | 0.00 | 0.00 | 0.00 | 85 | 1010.5 |
| 20260905083046 | 75 | 223 | 0.0 | 0.0 | 0.00 | 0.00 | 0.00 | 85 | 1010.5 |
| 20260905081553 | 76 | 223 | 0.0 | 0.0 | 0.00 | 0.00 | 0.00 | 85 | 1010.6 |
| 20260905080054 | 76 | 223 | 0.0 | 0.0 | 0.00 | 0.00 | 0.00 | 84 | 1010.8 |
| 20260905074541 | 76 | 223 | 0.0 | 0.0 | 0.00 | 0.00 | 0.00 | 84 | 1010.7 |
| 20260905073046 | 77 | 223 | 0.0 | 0.0 | 0.00 | 0.00 | 0.00 | 84 | 1010.8 |
| 20260905071548 | 77 | 223 | 0.0 | 0.0 | 0.00 | 0.00 | 0.00 | 84 | 1010.7 |
| 20260905070046 | 77 | 223 | 0.0 | 0.0 | 0.00 | 0.00 | 0.00 | 83 | 1010.7 |
| 20260905064539 | 77 | 223 | 0.0 | 0.0 | 0.00 | 0.00 | 0.00 | 84 | 1010.7 |
| 20260905063037 | 77 | 223 | 0.0 | 0.0 | 0.00 | 0.00 | 0.00 | 84 | 1010.7 |
| 20260905061553 | 77 | 223 | 0.0 | 0.0 | 0.00 | 0.00 | 0.00 | 84 | 1011.0 |
| 20260905060034 | 77 | 223 | 0.0 | 0.0 | 0.00 | 0.00 | 0.00 | 83 | 1010.9 |
| 20260905054532 | 78 | 223 | 0.0 | 0.0 | 0.00 | 0.00 | 0.00 | 83 | 1010.8 |
| 20260905053031 | 78 | 223 | 0.0 | 0.0 | 0.00 | 0.00 | 0.00 | 82 | 1010.9 |
| 20260905051539 | 78 | 223 | 0.0 | 0.0 | 0.00 | 0.00 | 0.00 | 82 | 1011.0 |
| 20260905050028 | 78 | 223 | 0.0 | 0.0 | 0.00 | 0.00 | 0.00 | 82 | 1011.0 |
| 20260905044528 | 79 | 223 | 0.0 | 0.0 | 0.00 | 0.00 | 0.00 | 82 | 1011.0 |
| 20260905043045 | 79 | 223 | 0.0 | 0.0 | 0.00 | 0.00 | 0.00 | 80 | 1011.1 |
| 20260905041526 | 80 | 223 | 0.0 | 0.0 | 0.00 | 0.00 | 0.00 | 81 | 1011.2 |
| 20260905040031 | 80 | 223 | 0.0 | 0.0 | 0.00 | 0.00 | 0.00 | 80 | 1011.3 |
| 20260905034529 | 79 | 223 | 0.0 | 0.0 | 0.00 | 0.00 | 0.00 | 80 | 1011.3 |
| 20260905033024 | 80 | 223 | 0.0 | 0.0 | 0.00 | 0.00 | 0.00 | 78 | 1011.2 |
| 20260905031523 | 80 | 223 | 0.0 | 0.0 | 0.00 | 0.00 | 0.00 | 78 | 1011.1 |
| 20260905030023 | 81 | 223 | 0.0 | 0.0 | 0.00 | 0.00 | 0.00 | 77 | 1011.1 |
| 20260905024522 | 81 | 223 | 0.0 | 0.0 | 0.00 | 0.00 | 0.00 | 77 | 1011.1 |
| 20260905023022 | 82 | 223 | 0.0 | 0.0 | 0.00 | 0.00 | 0.00 | 76 | 1010.8 |
| 20260905021521 | 82 | 223 | 0.0 | 0.0 | 0.00 | 0.00 | 0.00 | 76 | 1010.7 |
| 20260905020021 | 83 | 223 | 0.0 | 0.0 | 0.00 | 0.00 | 0.00 | 73 | 1010.7 |
| 20260905014521 | 83 | 223 | 0.0 | 0.0 | 0.00 | 0.00 | 0.00 | 73 | 1010.6 |
| 20260905013022 | 84 | 223 | 0.0 | 0.0 | 0.00 | 0.00 | 0.00 | 70 | 1010.4 |
| 20260905011520 | 85 | 223 | 0.0 | 0.0 | 0.00 | 0.00 | 0.00 | 70 | 1010.3 |
| 20260905010021 | 86 | 223 | 0.0 | 0.0 | 0.00 | 0.00 | 0.00 | 67 | 1010.3 |
| 20260905004519 | 88 | 223 | 0.0 | 0.0 | 0.00 | 0.00 | 0.00 | 64 | 1010.2 |
| 20260905003022 | 89 | 223 | 0.0 | 0.0 | 0.00 | 0.00 | 0.00 | 62 | 1010.2 |
| 20260905001519 | 91 | 223 | 0.0 | 0.0 | 0.00 | 0.00 | 0.00 | 59 | 1010.2 |
| 20260905000030 | 92 | 223 | 0.0 | 0.0 | 0.00 | 0.00 | 0.00 | 56 | 1010.1 |
| 20260904234516 | 93 | 223 | 0.0 | 0.0 | 0.00 | 0.00 | 0.00 | 53 | 1010.0 |
| 20260904233016 | 94 | 223 | 0.0 | 0.0 | 0.00 | 0.00 | 0.00 | 51 | 1009.9 |
| 20260904231515 | 94 | 229 | 0.0 | 0.0 | 0.00 | 0.00 | 0.00 | 51 | 1009.7 |
| 20260904230015 | 95 | 229 | 0.0 | 0.0 | 0.00 | 0.00 | 0.00 | 49 | 1009.8 |